createdAt,value
2022-10-13T00:00:46.112Z,9.21
2022-10-13T00:03:12.967Z,9.34
2022-10-13T00:05:44.530Z,9.35
2022-10-13T00:08:12.735Z,9.27
2022-10-13T00:10:40.769Z,9.43
2022-10-13T00:13:08.814Z,9.32
2022-10-13T00:15:46.142Z,9.56
2022-10-13T00:18:13.558Z,9.47
2022-10-13T00:20:49.406Z,9.56
2022-10-13T00:23:17.097Z,9.59
2022-10-13T00:25:45.931Z,9.48
2022-10-13T00:28:14.140Z,9.50
2022-10-13T00:30:41.592Z,9.62
2022-10-13T00:33:09.996Z,9.61
2022-10-13T00:35:46.168Z,9.25
2022-10-13T00:38:13.691Z,9.55
2022-10-13T00:40:47.980Z,9.26
2022-10-13T00:43:26.968Z,9.34
2022-10-13T00:45:54.421Z,9.11
2022-10-13T00:48:24.912Z,9.04
2022-10-13T00:50:52.468Z,8.68
2022-10-13T00:53:23.244Z,8.79
2022-10-13T00:55:52.664Z,9.01
2022-10-13T00:58:24.028Z,8.58
2022-10-13T01:00:53.144Z,8.94
2022-10-13T01:03:21.256Z,8.99
2022-10-13T01:05:48.682Z,8.66
2022-10-13T01:08:16.404Z,8.98
2022-10-13T01:11:07.524Z,8.92
2022-10-13T01:13:58.352Z,8.69
2022-10-13T01:16:35.768Z,8.65
2022-10-13T01:19:39.825Z,8.85
2022-10-13T01:22:25.184Z,8.81
2022-10-13T01:25:10.036Z,8.90
2022-10-13T01:27:59.812Z,8.89
2022-10-13T01:30:26.539Z,8.70
2022-10-13T01:33:09.682Z,8.86
2022-10-13T01:35:48.373Z,8.86
2022-10-13T01:38:33.568Z,8.89
2022-10-13T01:41:12.342Z,8.82
2022-10-13T01:43:58.783Z,8.37
2022-10-13T01:46:30.894Z,8.61
2022-10-13T01:49:01.996Z,8.50
2022-10-13T01:51:31.395Z,8.69
2022-10-13T01:53:58.065Z,8.76
2022-10-13T01:56:24.686Z,8.65
2022-10-13T01:58:53.969Z,8.28
2022-10-13T02:01:39.656Z,8.71
2022-10-13T02:04:06.219Z,8.69
2022-10-13T02:06:51.177Z,8.58
2022-10-13T02:09:46.044Z,8.30
2022-10-13T02:12:21.887Z,8.23
2022-10-13T02:14:50.944Z,8.46
2022-10-13T02:17:18.000Z,8.47
2022-10-13T02:19:45.165Z,8.37
2022-10-13T02:22:14.940Z,8.24
2022-10-13T02:24:41.979Z,8.43
2022-10-13T02:27:09.227Z,8.29
2022-10-13T02:29:49.637Z,8.38
2022-10-13T02:32:16.761Z,8.29
2022-10-13T02:34:43.676Z,8.12
2022-10-13T02:37:11.212Z,8.16
2022-10-13T02:39:37.895Z,8.24
2022-10-13T02:42:04.932Z,8.27
2022-10-13T02:44:31.959Z,8.30
2022-10-13T02:46:58.704Z,8.34
2022-10-13T02:49:25.371Z,8.11
2022-10-13T02:51:53.287Z,8.27
2022-10-13T02:54:20.051Z,8.14
2022-10-13T02:56:46.704Z,8.01
2022-10-13T02:59:13.476Z,7.92
2022-10-13T03:01:42.216Z,7.81
2022-10-13T03:04:09.233Z,8.09
2022-10-13T03:06:35.929Z,8.06
2022-10-13T03:09:02.936Z,7.72
2022-10-13T03:11:29.680Z,7.57
2022-10-13T03:13:56.296Z,7.88
2022-10-13T03:16:22.996Z,7.68
2022-10-13T03:18:49.654Z,7.51
2022-10-13T03:21:16.269Z,7.53
2022-10-13T03:23:42.952Z,7.55
2022-10-13T03:26:10.100Z,7.37
2022-10-13T03:28:36.753Z,7.81
2022-10-13T03:31:08.893Z,7.95
2022-10-13T03:33:35.564Z,7.95
2022-10-13T03:36:05.309Z,7.97
2022-10-13T03:38:34.339Z,7.97
2022-10-13T03:41:08.331Z,8.04
2022-10-13T03:43:35.515Z,8.03
2022-10-13T03:46:04.564Z,7.94
2022-10-13T03:48:31.759Z,8.06
2022-10-13T03:50:58.760Z,8.09
2022-10-13T03:53:26.251Z,8.05
2022-10-13T03:55:56.329Z,7.84
2022-10-13T03:58:24.604Z,7.77
2022-10-13T04:00:52.153Z,7.70
2022-10-13T04:03:18.781Z,7.61
2022-10-13T04:05:46.323Z,7.89
2022-10-13T04:08:13.562Z,7.77
2022-10-13T04:10:40.968Z,7.91
2022-10-13T04:13:08.326Z,8.02
2022-10-13T04:15:39.073Z,7.77
2022-10-13T04:18:07.513Z,8.08
2022-10-13T04:20:39.714Z,8.17
2022-10-13T04:23:07.330Z,8.19
2022-10-13T04:25:38.987Z,8.22
2022-10-13T04:28:07.127Z,8.18
2022-10-13T04:30:35.070Z,8.02
2022-10-13T04:33:01.789Z,8.13
2022-10-13T04:35:28.491Z,8.08
2022-10-13T04:37:57.460Z,7.79
2022-10-13T04:40:25.549Z,8.07
2022-10-13T04:42:52.451Z,7.89
2022-10-13T04:45:19.108Z,7.72
2022-10-13T04:47:45.784Z,7.93
2022-10-13T04:50:12.418Z,7.51
2022-10-13T04:52:39.061Z,7.81
2022-10-13T04:55:06.240Z,7.81
2022-10-13T04:57:32.967Z,7.80
2022-10-13T04:59:59.568Z,7.86
2022-10-13T05:02:26.165Z,7.89
2022-10-13T05:04:52.812Z,7.65
2022-10-13T05:07:19.454Z,7.82
2022-10-13T05:09:46.464Z,7.96
2022-10-13T05:12:13.144Z,7.77
2022-10-13T05:14:39.723Z,7.95
2022-10-13T05:17:06.330Z,7.59
2022-10-13T05:19:33.034Z,7.87
2022-10-13T05:21:59.667Z,7.88
2022-10-13T05:24:36.439Z,7.89
2022-10-13T05:27:11.046Z,7.95
2022-10-13T05:29:38.448Z,7.92
2022-10-13T05:32:05.700Z,7.93
2022-10-13T05:34:33.342Z,7.88
2022-10-13T05:37:00.811Z,7.83
2022-10-13T05:39:27.649Z,7.89
2022-10-13T05:41:54.313Z,7.55
2022-10-13T05:44:21.803Z,7.74
2022-10-13T05:46:48.494Z,7.91
2022-10-13T05:49:15.657Z,7.80
2022-10-13T05:51:47.138Z,7.97
2022-10-13T05:54:16.083Z,8.11
2022-10-13T05:56:54.199Z,8.04
2022-10-13T05:59:26.801Z,8.09
2022-10-13T06:01:54.575Z,8.24
2022-10-13T06:04:25.798Z,8.30
2022-10-13T06:06:52.734Z,8.46
2022-10-13T06:09:19.875Z,8.53
2022-10-13T06:11:46.489Z,8.61
2022-10-13T06:14:13.143Z,8.63
2022-10-13T06:16:41.077Z,8.61
2022-10-13T06:19:07.663Z,8.84
2022-10-13T06:21:35.670Z,8.92
2022-10-13T06:24:02.666Z,8.98
2022-10-13T06:26:29.248Z,8.98
2022-10-13T06:28:59.579Z,9.02
2022-10-13T06:31:26.532Z,9.17
2022-10-13T06:33:53.199Z,9.35
2022-10-13T06:36:19.920Z,9.28
2022-10-13T06:38:47.049Z,9.44
2022-10-13T06:41:14.394Z,9.41
2022-10-13T06:43:41.322Z,9.40
2022-10-13T06:46:08.506Z,9.55
2022-10-13T06:48:35.436Z,9.45
2022-10-13T06:51:06.786Z,9.91
2022-10-13T06:53:33.961Z,10.02
2022-10-13T06:56:01.918Z,10.14
2022-10-13T06:58:28.891Z,10.34
2022-10-13T07:00:55.838Z,10.57
2022-10-13T07:03:24.011Z,10.61
2022-10-13T07:05:50.663Z,10.79
2022-10-13T07:08:17.628Z,10.77
2022-10-13T07:10:44.234Z,11.05
2022-10-13T07:13:10.915Z,11.23
2022-10-13T07:15:39.395Z,11.28
2022-10-13T07:18:06.727Z,11.32
2022-10-13T07:20:34.011Z,11.41
2022-10-13T07:23:00.708Z,11.35
2022-10-13T07:25:27.587Z,11.39
2022-10-13T07:27:54.176Z,11.56
2022-10-13T07:30:20.865Z,11.72
2022-10-13T07:32:47.891Z,11.63
2022-10-13T07:35:14.526Z,12.04
2022-10-13T07:37:41.291Z,12.23
2022-10-13T07:40:08.873Z,12.44
2022-10-13T07:42:35.984Z,12.73
2022-10-13T07:45:03.088Z,12.91
2022-10-13T07:47:29.868Z,13.24
2022-10-13T07:49:56.512Z,13.55
2022-10-13T07:52:23.446Z,13.48
2022-10-13T07:54:50.851Z,13.65
2022-10-13T07:57:17.988Z,13.24
2022-10-13T07:59:44.672Z,13.69
2022-10-13T08:02:11.420Z,13.85
2022-10-13T08:04:38.386Z,14.09
2022-10-13T08:07:06.205Z,14.16
2022-10-13T08:09:33.263Z,14.28
2022-10-13T08:12:00.818Z,14.46
2022-10-13T08:14:29.020Z,14.32
2022-10-13T08:16:56.346Z,14.50
2022-10-13T08:19:26.296Z,14.62
2022-10-13T08:21:58.134Z,14.73
2022-10-13T08:24:26.789Z,14.71
2022-10-13T08:26:53.685Z,14.96
2022-10-13T08:29:23.056Z,15.23
2022-10-13T08:31:51.663Z,15.46
2022-10-13T08:34:18.687Z,15.35
2022-10-13T08:36:45.448Z,15.47
2022-10-13T08:39:12.866Z,15.53
2022-10-13T08:41:45.887Z,15.72
2022-10-13T08:47:44.343Z,15.67
2022-10-13T08:50:15.198Z,15.80
2022-10-13T08:52:49.866Z,15.69
2022-10-13T08:55:23.166Z,15.65
2022-10-13T08:57:50.038Z,15.79
2022-10-13T09:00:17.388Z,15.76
2022-10-13T09:02:45.031Z,15.58
2022-10-13T09:05:27.555Z,16.34
2022-10-13T09:07:56.780Z,16.50
2022-10-13T09:10:23.454Z,16.49
2022-10-13T09:12:51.582Z,16.76
2022-10-13T09:15:18.544Z,16.25
2022-10-13T09:17:45.764Z,16.72
2022-10-13T09:20:25.218Z,17.08
2022-10-13T09:23:04.368Z,17.08
2022-10-13T09:25:47.183Z,17.19
2022-10-13T09:28:19.849Z,16.96
2022-10-13T09:30:47.957Z,16.70
2022-10-13T09:33:19.260Z,17.06
2022-10-13T09:35:48.756Z,16.76
2022-10-13T09:38:20.072Z,17.56
2022-10-13T09:41:09.679Z,17.28
2022-10-13T09:43:42.281Z,17.47
2022-10-13T09:46:28.193Z,17.43
2022-10-13T09:48:59.341Z,17.83
2022-10-13T09:51:45.321Z,18.07
2022-10-13T09:54:39.042Z,17.83
2022-10-13T09:57:29.976Z,18.03
2022-10-13T10:00:18.414Z,17.84
2022-10-13T10:02:51.512Z,18.18
2022-10-13T10:05:24.593Z,18.17
2022-10-13T10:07:51.550Z,18.19
2022-10-13T10:10:31.204Z,18.57
2022-10-13T10:12:57.745Z,18.58
2022-10-13T10:15:33.286Z,18.36
2022-10-13T10:18:08.909Z,18.12
2022-10-13T10:21:03.071Z,18.64
2022-10-13T10:23:41.547Z,18.60
2022-10-13T10:26:23.709Z,18.66
2022-10-13T10:29:14.887Z,18.47
2022-10-13T10:31:57.979Z,18.67
2022-10-13T10:34:37.481Z,18.45
2022-10-13T10:37:21.180Z,18.67
2022-10-13T10:40:08.808Z,18.93
2022-10-13T10:42:48.417Z,18.67
2022-10-13T10:45:22.149Z,18.68
2022-10-13T10:47:54.055Z,18.64
2022-10-13T10:50:22.045Z,18.81
2022-10-13T10:52:48.604Z,19.17
2022-10-13T10:55:29.822Z,18.84
2022-10-13T10:58:30.294Z,19.10
2022-10-13T11:01:06.031Z,19.18
2022-10-13T11:03:40.854Z,19.21
2022-10-13T11:06:37.593Z,19.19
2022-10-13T11:09:06.036Z,19.19
2022-10-13T11:11:38.988Z,19.40
2022-10-13T11:14:05.534Z,19.43
2022-10-13T11:16:40.757Z,19.07
2022-10-13T11:19:33.287Z,19.19
2022-10-13T11:21:59.914Z,19.43
2022-10-13T11:24:41.840Z,18.89
2022-10-13T11:27:08.428Z,19.32
2022-10-13T11:29:47.202Z,18.93
2022-10-13T11:32:46.234Z,19.29
2022-10-13T11:35:12.776Z,19.23
2022-10-13T11:37:42.089Z,19.21
2022-10-13T11:40:33.750Z,19.45
2022-10-13T11:43:33.769Z,19.49
2022-10-13T11:46:12.517Z,19.59
2022-10-13T11:48:50.094Z,19.33
2022-10-13T11:51:38.685Z,19.23
2022-10-13T11:54:36.592Z,19.47
2022-10-13T11:57:04.759Z,19.29
2022-10-13T11:59:35.028Z,19.35
2022-10-13T12:02:10.724Z,19.87
2022-10-13T12:04:41.546Z,19.96
2022-10-13T12:07:13.329Z,19.94
2022-10-13T12:09:54.490Z,20.04
2022-10-13T12:12:22.826Z,20.12
2022-10-13T12:14:53.409Z,20.22
2022-10-13T12:17:26.681Z,20.18
2022-10-13T12:19:56.278Z,20.06
2022-10-13T12:22:24.024Z,20.01
2022-10-13T12:25:02.565Z,19.99
2022-10-13T12:27:34.109Z,19.97
2022-10-13T12:30:02.019Z,20.09
2022-10-13T12:32:33.596Z,20.33
2022-10-13T12:35:23.872Z,20.41
2022-10-13T12:37:52.241Z,20.19
2022-10-13T12:40:19.377Z,20.27
2022-10-13T12:42:47.132Z,20.61
2022-10-13T12:45:23.323Z,20.95
2022-10-13T12:47:52.579Z,20.90
2022-10-13T12:50:25.367Z,20.78
2022-10-13T12:53:09.935Z,20.10
2022-10-13T12:55:50.672Z,19.56
2022-10-13T12:58:24.595Z,19.84
2022-10-13T13:01:12.694Z,19.18
2022-10-13T13:06:34.976Z,19.11
2022-10-13T13:09:19.823Z,19.38
2022-10-13T13:11:47.236Z,19.13
2022-10-13T13:14:37.445Z,19.30
2022-10-13T13:17:08.504Z,18.98
2022-10-13T13:19:36.403Z,19.33
2022-10-13T13:22:05.095Z,19.18
2022-10-13T13:24:39.979Z,19.44
2022-10-13T13:27:17.683Z,19.01
2022-10-13T13:29:45.738Z,19.06
2022-10-13T13:32:14.500Z,19.36
2022-10-13T13:34:41.423Z,19.36
2022-10-13T13:37:26.469Z,19.41
2022-10-13T13:39:53.319Z,19.19
2022-10-13T13:42:20.008Z,19.00
2022-10-13T13:44:46.742Z,18.77
2022-10-13T13:47:17.317Z,18.76
2022-10-13T13:49:44.268Z,18.58
2022-10-13T13:52:10.905Z,18.29
2022-10-13T13:54:37.505Z,18.08
2022-10-13T13:57:04.581Z,18.28
2022-10-13T13:59:31.653Z,17.97
2022-10-13T14:01:58.369Z,18.02
2022-10-13T14:04:25.034Z,17.89
2022-10-13T14:06:52.930Z,17.70
2022-10-13T14:09:19.566Z,17.65
2022-10-13T14:11:46.199Z,17.75
2022-10-13T14:14:13.101Z,17.29
2022-10-13T14:16:41.512Z,17.83
2022-10-13T14:19:10.190Z,17.80
2022-10-13T14:21:37.240Z,17.79
2022-10-13T14:24:04.651Z,18.00
2022-10-13T14:26:31.568Z,17.81
2022-10-13T14:28:58.477Z,17.86
2022-10-13T14:31:25.180Z,17.85
2022-10-13T14:33:54.310Z,18.07
2022-10-13T14:36:21.260Z,18.18
2022-10-13T14:38:47.870Z,17.81
2022-10-13T14:41:17.062Z,17.83
2022-10-13T14:43:44.235Z,17.63
2022-10-13T14:46:10.858Z,17.67
2022-10-13T14:48:37.775Z,17.77
2022-10-13T14:51:06.304Z,17.58
2022-10-13T14:53:34.728Z,17.64
2022-10-13T14:56:01.966Z,17.27
2022-10-13T14:58:28.699Z,17.29
2022-10-13T15:00:55.684Z,17.04
2022-10-13T15:03:27.747Z,16.75
2022-10-13T15:05:54.536Z,16.97
2022-10-13T15:08:21.171Z,16.86
2022-10-13T15:10:47.828Z,16.76
2022-10-13T15:13:14.460Z,16.54
2022-10-13T15:15:47.934Z,16.13
2022-10-13T15:18:14.605Z,16.44
2022-10-13T15:20:46.369Z,16.37
2022-10-13T15:23:14.587Z,16.07
2022-10-13T15:25:49.996Z,15.95
2022-10-13T15:28:16.944Z,15.94
2022-10-13T15:30:43.680Z,15.94
2022-10-13T15:33:10.306Z,15.67
2022-10-13T15:35:36.968Z,15.65
2022-10-13T15:38:03.555Z,15.45
2022-10-13T15:40:33.553Z,15.23
2022-10-13T15:43:00.824Z,15.42
2022-10-13T15:45:27.669Z,14.87
2022-10-13T15:47:54.343Z,15.09
2022-10-13T15:50:20.987Z,15.05
2022-10-13T15:52:47.639Z,14.53
2022-10-13T15:55:14.280Z,14.67
2022-10-13T15:57:40.981Z,14.62
2022-10-13T16:00:09.622Z,13.92
2022-10-13T16:02:36.355Z,14.06
2022-10-13T16:05:05.368Z,14.18
2022-10-13T16:07:32.477Z,13.99
2022-10-13T16:09:59.187Z,13.69
2022-10-13T16:12:27.547Z,13.82
2022-10-13T16:14:54.593Z,13.02
2022-10-13T16:17:21.286Z,13.20
2022-10-13T16:19:48.125Z,13.29
2022-10-13T16:22:15.070Z,13.15
2022-10-13T16:24:41.683Z,12.98
2022-10-13T16:27:08.519Z,13.03
2022-10-13T16:29:35.122Z,12.79
2022-10-13T16:32:01.733Z,12.75
2022-10-13T16:34:28.468Z,12.57
2022-10-13T16:36:55.151Z,12.43
2022-10-13T16:39:23.834Z,12.25
2022-10-13T16:41:51.616Z,12.36
2022-10-13T16:44:18.251Z,12.20
2022-10-13T16:46:45.275Z,12.02
2022-10-13T16:49:12.755Z,12.04
2022-10-13T16:51:39.402Z,11.59
2022-10-13T16:54:06.237Z,11.69
2022-10-13T16:56:33.494Z,11.73
2022-10-13T16:59:02.775Z,11.40
2022-10-13T17:01:30.925Z,10.88
2022-10-13T17:03:57.972Z,11.25
2022-10-13T17:06:27.483Z,11.45
2022-10-13T17:08:54.973Z,11.35
2022-10-13T17:11:24.796Z,11.29
2022-10-13T17:13:51.727Z,11.28
2022-10-13T17:16:20.286Z,11.04
2022-10-13T17:18:46.953Z,10.75
2022-10-13T17:21:15.785Z,10.99
2022-10-13T17:23:48.098Z,10.95
2022-10-13T17:26:16.428Z,10.83
2022-10-13T17:28:43.163Z,10.27
2022-10-13T17:31:12.671Z,10.76
2022-10-13T17:33:40.682Z,10.70
2022-10-13T17:36:15.373Z,10.62
2022-10-13T17:38:43.179Z,10.55
2022-10-13T17:41:11.172Z,10.37
2022-10-13T17:43:39.235Z,10.28
2022-10-13T17:46:34.608Z,10.47
2022-10-13T17:48:56.382Z,10.43
2022-10-13T17:51:23.443Z,10.42
2022-10-13T17:53:51.579Z,10.25
2022-10-13T17:56:21.584Z,10.20
2022-10-13T17:58:50.066Z,9.85
2022-10-13T18:01:19.871Z,9.41
2022-10-13T18:03:47.423Z,10.07
2022-10-13T18:06:14.666Z,10.07
2022-10-13T18:08:41.624Z,9.93
2022-10-13T18:11:10.483Z,10.03
2022-10-13T18:13:37.521Z,9.78
2022-10-13T18:16:09.911Z,9.92
2022-10-13T18:18:37.692Z,9.73
2022-10-13T18:21:06.034Z,9.72
2022-10-13T18:23:34.775Z,9.45
2022-10-13T18:26:13.643Z,9.63
2022-10-13T18:28:43.349Z,9.63
2022-10-13T18:31:18.849Z,9.65
2022-10-13T18:33:46.092Z,9.61
2022-10-13T18:39:13.500Z,9.50
2022-10-13T18:41:41.116Z,9.52
2022-10-13T18:44:08.572Z,9.50
2022-10-13T18:46:37.558Z,9.59
2022-10-13T18:49:05.660Z,9.49
2022-10-13T18:51:36.118Z,9.45
2022-10-13T18:54:04.269Z,9.79
2022-10-13T18:56:32.404Z,10.00
2022-10-13T18:59:01.687Z,10.10
2022-10-13T19:01:30.855Z,10.15
2022-10-13T19:03:58.389Z,10.34
2022-10-13T19:06:27.271Z,10.36
2022-10-13T19:08:56.811Z,10.50
2022-10-13T19:11:24.881Z,10.61
2022-10-13T19:13:52.506Z,10.66
2022-10-13T19:16:21.876Z,10.72
2022-10-13T19:18:49.345Z,10.56
2022-10-13T19:21:17.396Z,10.07
2022-10-13T19:23:44.351Z,10.22
2022-10-13T19:26:26.215Z,10.98
2022-10-13T19:28:58.474Z,11.09
2022-10-13T19:31:27.202Z,11.43
2022-10-13T19:33:54.026Z,11.64
2022-10-13T19:36:33.666Z,11.80
2022-10-13T19:39:02.179Z,11.82
2022-10-13T19:41:31.172Z,11.61
2022-10-13T19:43:58.589Z,11.66
2022-10-13T19:46:25.236Z,11.72
2022-10-13T19:48:51.836Z,11.49
2022-10-13T19:51:18.629Z,11.54
2022-10-13T19:53:45.525Z,11.69
2022-10-13T19:56:23.819Z,11.62
2022-10-13T19:58:52.002Z,11.39
2022-10-13T20:01:19.443Z,11.54
2022-10-13T20:03:46.853Z,11.46
2022-10-13T20:06:13.924Z,11.06
2022-10-13T20:08:40.753Z,11.11
2022-10-13T20:11:24.114Z,11.34
2022-10-13T20:13:52.264Z,11.39
2022-10-13T20:16:23.434Z,11.50
2022-10-13T20:18:57.644Z,11.81
2022-10-13T20:21:25.940Z,11.85
2022-10-13T20:23:53.027Z,12.03
2022-10-13T20:26:20.556Z,12.03
2022-10-13T20:28:48.747Z,11.83
2022-10-13T20:31:18.107Z,12.00
2022-10-13T20:33:45.000Z,11.91
2022-10-13T20:36:14.353Z,11.92
2022-10-13T20:38:41.412Z,11.86
2022-10-13T20:41:15.689Z,11.84
2022-10-13T20:43:42.525Z,11.56
2022-10-13T20:46:09.608Z,11.73
2022-10-13T20:48:58.156Z,11.65
2022-10-13T20:51:25.966Z,11.59
2022-10-13T20:53:52.605Z,11.04
2022-10-13T20:56:21.913Z,10.72
2022-10-13T20:58:49.380Z,11.05
2022-10-13T21:01:19.362Z,10.90
2022-10-13T21:03:46.588Z,10.83
2022-10-13T21:06:14.711Z,10.73
2022-10-13T21:08:45.235Z,10.63
2022-10-13T21:11:14.425Z,10.60
2022-10-13T21:13:42.544Z,10.48
2022-10-13T21:16:11.880Z,10.40
2022-10-13T21:18:38.581Z,10.17
2022-10-13T21:21:10.187Z,10.15
2022-10-13T21:23:37.829Z,10.30
2022-10-13T21:26:06.527Z,10.32
2022-10-13T21:28:35.796Z,10.47
2022-10-13T21:31:03.557Z,10.56
2022-10-13T21:33:30.379Z,10.28
2022-10-13T21:35:57.360Z,10.19
2022-10-13T21:38:24.286Z,9.99
2022-10-13T21:40:54.022Z,10.08
2022-10-13T21:43:20.708Z,10.12
2022-10-13T21:45:47.483Z,10.01
2022-10-13T21:48:14.094Z,9.71
2022-10-13T21:50:40.821Z,9.79
2022-10-13T21:53:07.462Z,9.77
2022-10-13T21:55:34.129Z,9.76
2022-10-13T21:58:05.337Z,9.67
2022-10-13T22:00:32.856Z,9.58
2022-10-13T22:02:59.550Z,9.50
2022-10-13T22:05:26.231Z,9.33
2022-10-13T22:07:53.563Z,9.57
2022-10-13T22:10:20.272Z,9.43
2022-10-13T22:12:46.911Z,9.38
2022-10-13T22:15:13.603Z,9.27
2022-10-13T22:17:40.197Z,9.50
2022-10-13T22:20:07.104Z,9.71
2022-10-13T22:22:33.780Z,9.79
2022-10-13T22:25:00.507Z,9.74
2022-10-13T22:27:27.097Z,9.99
2022-10-13T22:29:53.824Z,10.18
2022-10-13T22:32:20.440Z,10.02
2022-10-13T22:34:47.094Z,9.88
2022-10-13T22:37:13.693Z,9.78
2022-10-13T22:39:40.301Z,9.68
2022-10-13T22:42:06.969Z,9.93
2022-10-13T22:44:33.562Z,9.90
2022-10-13T22:47:00.151Z,9.99
2022-10-13T22:49:26.811Z,10.10
2022-10-13T22:51:53.428Z,10.14
2022-10-13T22:54:20.012Z,9.99
2022-10-13T22:56:46.604Z,10.30
2022-10-13T22:59:13.991Z,10.29
2022-10-13T23:01:40.649Z,10.32
2022-10-13T23:04:07.245Z,10.21
2022-10-13T23:06:35.579Z,10.25
2022-10-13T23:09:05.026Z,10.19
2022-10-13T23:11:31.674Z,9.84
2022-10-13T23:13:58.299Z,9.84
2022-10-13T23:16:26.419Z,9.74
2022-10-13T23:18:53.551Z,9.50
2022-10-13T23:21:22.340Z,9.62
2022-10-13T23:23:54.883Z,9.12
2022-10-13T23:26:21.482Z,9.45
2022-10-13T23:28:48.141Z,9.30
2022-10-13T23:31:16.794Z,9.46
2022-10-13T23:33:43.956Z,9.45
2022-10-13T23:36:15.887Z,9.29
2022-10-13T23:38:42.783Z,8.99
2022-10-13T23:41:12.386Z,9.08
2022-10-13T23:43:40.239Z,8.63
2022-10-13T23:46:08.002Z,8.77
2022-10-13T23:48:34.584Z,8.78
2022-10-13T23:51:24.852Z,8.80
2022-10-13T23:53:52.351Z,8.65
2022-10-13T23:56:19.483Z,8.69
2022-10-13T23:58:46.345Z,8.53
